メインページ
METAR-TAF:

METAR-TAF

空港 :

アカプルコ国際空港

アカプルコ, メキシコ

緯度: 16-46N, 経度: 099-45W, 海抜: 5m

現時点の気象観測

当レポートは56分前の08:43(UTC)に作成
無風
気温 28°C
湿度 84%
気圧 1010 hPa
視程: 8.0km
高度30000ftの千切れ雲あり

METAR: MMAA 200843Z 00000KT 5SM BKN300 28/25 A2982 RMK SLP100 57011 905 8/002 HZY

時間: 04:39 (09:39 UTC)

予報

当レポートは4時間45分前の04:54(UTC)に作成
予報は20日の 06時(UTC)から 21日の 12時(UTC)まで有効
北/北東の風 5kt
視程: 8.0km
高度2000ftの雲は散在している
高度30000ftの千切れ雲あり
煙霧
20日の 1600時(UTC)から
南西の風 10kt
視程: 10km
高度30000ftの雲は散在している
21日の 0300時(UTC)から
北/北東の風 5kt
視程: 10km
高度2000ftの雲は散在している
高度30000ftの千切れ雲あり

TAF: MMAA 200454Z 2006/2112 03005KT 5SM HZ SCT020 BKN300 TX32/2019Z TN26/2012Z FM201600 23010KT P6SM SCT300 FM210300 03005KT P6SM SCT020 BKN300

4,000以上の空港の気象観測と天気予報(METAR報とTAF報)

利用可能な観測所は地図上に黄色い丸と赤い丸で示す。

丸の上にカーソルを重ねると観測所名を参照できる。

次にクリックすると気象観測と天気予報を参照できる。

マップの切り替え:黒色「×」印の緑ボタンをクリックして拡大、「-」印の緑ボタンをクリックして縮小、緑色の三角印をクリックして隣りの地図に切り替え


METAR-TAF: